sensor_id;sensor_type;location;lat;lon;timestamp;temperature;humidity
41882;DHT22;27562;47.524;12.404;2023-04-09T00:01:48;2.70;99.90
41882;DHT22;27562;47.524;12.404;2023-04-09T00:04:14;2.70;99.90
41882;DHT22;27562;47.524;12.404;2023-04-09T00:06:40;2.70;99.90
41882;DHT22;27562;47.524;12.404;2023-04-09T00:09:06;2.70;99.90
41882;DHT22;27562;47.524;12.404;2023-04-09T00:11:32;2.70;99.90
41882;DHT22;27562;47.524;12.404;2023-04-09T00:13:57;2.70;99.90
41882;DHT22;27562;47.524;12.404;2023-04-09T00:16:23;2.70;99.90
41882;DHT22;27562;47.524;12.404;2023-04-09T00:18:49;2.70;99.90
41882;DHT22;27562;47.524;12.404;2023-04-09T00:21:16;2.70;99.90
41882;DHT22;27562;47.524;12.404;2023-04-09T00:23:42;2.70;99.90
41882;DHT22;27562;47.524;12.404;2023-04-09T00:26:08;2.70;99.90
41882;DHT22;27562;47.524;12.404;2023-04-09T00:28:34;2.70;99.90
41882;DHT22;27562;47.524;12.404;2023-04-09T00:31:01;2.70;99.90
41882;DHT22;27562;47.524;12.404;2023-04-09T00:33:27;2.70;99.90
41882;DHT22;27562;47.524;12.404;2023-04-09T00:35:52;2.70;99.90
41882;DHT22;27562;47.524;12.404;2023-04-09T00:38:18;2.70;99.90
41882;DHT22;27562;47.524;12.404;2023-04-09T00:40:48;2.70;99.90
41882;DHT22;27562;47.524;12.404;2023-04-09T00:43:15;2.70;99.90
41882;DHT22;27562;47.524;12.404;2023-04-09T00:45:41;2.60;99.90
41882;DHT22;27562;47.524;12.404;2023-04-09T00:48:07;2.70;99.90
41882;DHT22;27562;47.524;12.404;2023-04-09T00:50:33;2.70;99.90
41882;DHT22;27562;47.524;12.404;2023-04-09T00:52:59;2.60;99.90
41882;DHT22;27562;47.524;12.404;2023-04-09T00:55:25;2.60;99.90
41882;DHT22;27562;47.524;12.404;2023-04-09T00:57:52;2.60;99.90
41882;DHT22;27562;47.524;12.404;2023-04-09T01:00:17;2.50;99.90
41882;DHT22;27562;47.524;12.404;2023-04-09T01:02:44;2.50;99.90
41882;DHT22;27562;47.524;12.404;2023-04-09T01:05:11;2.40;99.90
41882;DHT22;27562;47.524;12.404;2023-04-09T01:10:39;2.40;99.90
41882;DHT22;27562;47.524;12.404;2023-04-09T01:16:00;2.40;99.90
41882;DHT22;27562;47.524;12.404;2023-04-09T01:18:35;2.40;99.90
41882;DHT22;27562;47.524;12.404;2023-04-09T01:21:16;2.40;99.90
41882;DHT22;27562;47.524;12.404;2023-04-09T01:29:17;2.50;99.90
41882;DHT22;27562;47.524;12.404;2023-04-09T01:31:44;2.40;99.90
41882;DHT22;27562;47.524;12.404;2023-04-09T01:34:10;2.40;99.90
41882;DHT22;27562;47.524;12.404;2023-04-09T01:36:39;2.40;99.90
41882;DHT22;27562;47.524;12.404;2023-04-09T01:39:05;2.50;99.90
41882;DHT22;27562;47.524;12.404;2023-04-09T01:41:32;2.50;99.90
41882;DHT22;27562;47.524;12.404;2023-04-09T01:44:00;2.50;99.90
41882;DHT22;27562;47.524;12.404;2023-04-09T01:46:26;2.60;99.90
41882;DHT22;27562;47.524;12.404;2023-04-09T01:48:53;2.60;99.90
41882;DHT22;27562;47.524;12.404;2023-04-09T01:51:20;2.50;99.90
41882;DHT22;27562;47.524;12.404;2023-04-09T01:53:48;2.50;99.90
41882;DHT22;27562;47.524;12.404;2023-04-09T01:56:13;2.50;99.90
41882;DHT22;27562;47.524;12.404;2023-04-09T01:58:39;2.50;99.90
41882;DHT22;27562;47.524;12.404;2023-04-09T02:01:26;2.50;99.90
41882;DHT22;27562;47.524;12.404;2023-04-09T02:04:00;2.50;99.90
41882;DHT22;27562;47.524;12.404;2023-04-09T02:06:39;2.50;99.90
41882;DHT22;27562;47.524;12.404;2023-04-09T02:09:07;2.50;99.90
41882;DHT22;27562;47.524;12.404;2023-04-09T02:11:39;2.50;99.90
41882;DHT22;27562;47.524;12.404;2023-04-09T02:14:06;2.50;99.90
41882;DHT22;27562;47.524;12.404;2023-04-09T02:16:34;2.50;99.90
41882;DHT22;27562;47.524;12.404;2023-04-09T02:19:00;2.50;99.90
41882;DHT22;27562;47.524;12.404;2023-04-09T02:21:27;2.50;99.90
41882;DHT22;27562;47.524;12.404;2023-04-09T02:23:54;2.50;99.90
41882;DHT22;27562;47.524;12.404;2023-04-09T02:26:21;2.40;99.90
41882;DHT22;27562;47.524;12.404;2023-04-09T02:28:47;2.30;99.90
41882;DHT22;27562;47.524;12.404;2023-04-09T02:31:13;2.30;99.90
41882;DHT22;27562;47.524;12.404;2023-04-09T02:33:39;2.30;99.90
41882;DHT22;27562;47.524;12.404;2023-04-09T02:36:05;2.30;99.90
41882;DHT22;27562;47.524;12.404;2023-04-09T02:38:31;2.40;99.90
41882;DHT22;27562;47.524;12.404;2023-04-09T02:40:57;2.40;99.90
41882;DHT22;27562;47.524;12.404;2023-04-09T02:43:23;2.30;99.90
41882;DHT22;27562;47.524;12.404;2023-04-09T02:45:49;2.40;99.90
41882;DHT22;27562;47.524;12.404;2023-04-09T02:48:15;2.40;99.90
41882;DHT22;27562;47.524;12.404;2023-04-09T02:50:40;2.40;99.90
41882;DHT22;27562;47.524;12.404;2023-04-09T02:53:06;2.40;99.90
41882;DHT22;27562;47.524;12.404;2023-04-09T02:55:32;2.40;99.90
41882;DHT22;27562;47.524;12.404;2023-04-09T02:57:58;2.40;99.90
41882;DHT22;27562;47.524;12.404;2023-04-09T03:00:24;2.50;99.90
41882;DHT22;27562;47.524;12.404;2023-04-09T03:02:50;2.40;99.90
41882;DHT22;27562;47.524;12.404;2023-04-09T03:05:15;2.30;99.90
41882;DHT22;27562;47.524;12.404;2023-04-09T03:07:41;2.30;99.90
41882;DHT22;27562;47.524;12.404;2023-04-09T03:10:07;2.30;99.90
41882;DHT22;27562;47.524;12.404;2023-04-09T03:12:33;2.30;99.90
41882;DHT22;27562;47.524;12.404;2023-04-09T03:15:00;2.20;99.90
41882;DHT22;27562;47.524;12.404;2023-04-09T03:17:26;2.20;99.90
41882;DHT22;27562;47.524;12.404;2023-04-09T03:19:52;2.20;99.90
41882;DHT22;27562;47.524;12.404;2023-04-09T03:22:18;2.30;99.90
41882;DHT22;27562;47.524;12.404;2023-04-09T03:24:46;2.30;99.90
41882;DHT22;27562;47.524;12.404;2023-04-09T03:27:12;2.30;99.90
41882;DHT22;27562;47.524;12.404;2023-04-09T03:29:38;2.30;99.90
41882;DHT22;27562;47.524;12.404;2023-04-09T03:32:04;2.30;99.90
41882;DHT22;27562;47.524;12.404;2023-04-09T03:34:30;2.30;99.90
41882;DHT22;27562;47.524;12.404;2023-04-09T03:36:56;2.30;99.90
41882;DHT22;27562;47.524;12.404;2023-04-09T03:39:22;2.30;99.90
41882;DHT22;27562;47.524;12.404;2023-04-09T03:41:48;2.30;99.90
41882;DHT22;27562;47.524;12.404;2023-04-09T03:44:14;2.40;99.90
41882;DHT22;27562;47.524;12.404;2023-04-09T03:46:39;2.40;99.90
41882;DHT22;27562;47.524;12.404;2023-04-09T03:49:05;2.40;99.90
41882;DHT22;27562;47.524;12.404;2023-04-09T03:51:31;2.40;99.90
41882;DHT22;27562;47.524;12.404;2023-04-09T03:53:57;2.40;99.90
41882;DHT22;27562;47.524;12.404;2023-04-09T03:56:25;2.40;99.90
41882;DHT22;27562;47.524;12.404;2023-04-09T03:58:51;2.40;99.90
41882;DHT22;27562;47.524;12.404;2023-04-09T04:01:17;2.40;99.90
41882;DHT22;27562;47.524;12.404;2023-04-09T04:03:43;2.40;99.90
41882;DHT22;27562;47.524;12.404;2023-04-09T04:06:08;2.40;99.90
41882;DHT22;27562;47.524;12.404;2023-04-09T04:08:34;2.40;99.90
41882;DHT22;27562;47.524;12.404;2023-04-09T04:11:04;2.40;99.90
41882;DHT22;27562;47.524;12.404;2023-04-09T04:13:30;2.40;99.90
41882;DHT22;27562;47.524;12.404;2023-04-09T04:15:56;2.40;99.90
41882;DHT22;27562;47.524;12.404;2023-04-09T04:18:21;2.40;99.90
41882;DHT22;27562;47.524;12.404;2023-04-09T04:20:47;2.30;99.90
41882;DHT22;27562;47.524;12.404;2023-04-09T04:23:13;2.30;99.90
41882;DHT22;27562;47.524;12.404;2023-04-09T04:25:40;2.30;99.90
41882;DHT22;27562;47.524;12.404;2023-04-09T04:28:06;2.20;99.90
41882;DHT22;27562;47.524;12.404;2023-04-09T04:30:32;2.20;99.90
41882;DHT22;27562;47.524;12.404;2023-04-09T04:32:58;2.10;99.90
41882;DHT22;27562;47.524;12.404;2023-04-09T04:35:24;2.10;99.90
41882;DHT22;27562;47.524;12.404;2023-04-09T04:37:50;2.10;99.90
41882;DHT22;27562;47.524;12.404;2023-04-09T04:40:16;2.10;99.90
41882;DHT22;27562;47.524;12.404;2023-04-09T04:42:42;2.20;99.90
41882;DHT22;27562;47.524;12.404;2023-04-09T04:45:08;2.10;99.90
41882;DHT22;27562;47.524;12.404;2023-04-09T04:47:34;2.10;99.90
41882;DHT22;27562;47.524;12.404;2023-04-09T04:50:00;2.10;99.90
41882;DHT22;27562;47.524;12.404;2023-04-09T04:52:26;2.10;99.90
41882;DHT22;27562;47.524;12.404;2023-04-09T04:54:52;2.10;99.90
41882;DHT22;27562;47.524;12.404;2023-04-09T04:57:19;2.10;99.90
41882;DHT22;27562;47.524;12.404;2023-04-09T04:59:44;2.00;99.90
41882;DHT22;27562;47.524;12.404;2023-04-09T05:02:10;2.00;99.90
41882;DHT22;27562;47.524;12.404;2023-04-09T05:04:36;2.00;99.90
41882;DHT22;27562;47.524;12.404;2023-04-09T05:07:02;2.00;99.90
41882;DHT22;27562;47.524;12.404;2023-04-09T05:09:32;2.00;99.90
41882;DHT22;27562;47.524;12.404;2023-04-09T05:11:58;2.00;99.90
41882;DHT22;27562;47.524;12.404;2023-04-09T05:14:25;2.00;99.90
41882;DHT22;27562;47.524;12.404;2023-04-09T05:16:51;2.10;99.90
41882;DHT22;27562;47.524;12.404;2023-04-09T05:19:18;2.10;99.90
41882;DHT22;27562;47.524;12.404;2023-04-09T05:21:44;2.10;99.90
41882;DHT22;27562;47.524;12.404;2023-04-09T05:24:11;2.20;99.90
41882;DHT22;27562;47.524;12.404;2023-04-09T05:26:37;2.20;99.90
41882;DHT22;27562;47.524;12.404;2023-04-09T05:29:03;2.20;99.90
41882;DHT22;27562;47.524;12.404;2023-04-09T05:31:28;2.20;99.90
41882;DHT22;27562;47.524;12.404;2023-04-09T05:33:54;2.20;99.90
41882;DHT22;27562;47.524;12.404;2023-04-09T05:36:21;2.20;99.90
41882;DHT22;27562;47.524;12.404;2023-04-09T05:38:47;2.20;99.90
41882;DHT22;27562;47.524;12.404;2023-04-09T05:41:13;2.30;99.90
41882;DHT22;27562;47.524;12.404;2023-04-09T05:43:38;2.30;99.90
41882;DHT22;27562;47.524;12.404;2023-04-09T05:46:05;2.30;99.90
41882;DHT22;27562;47.524;12.404;2023-04-09T05:48:30;2.30;99.90
41882;DHT22;27562;47.524;12.404;2023-04-09T05:50:59;2.40;99.90
41882;DHT22;27562;47.524;12.404;2023-04-09T05:53:24;2.40;99.90
41882;DHT22;27562;47.524;12.404;2023-04-09T05:55:50;2.50;99.90
41882;DHT22;27562;47.524;12.404;2023-04-09T05:58:16;2.50;99.90
41882;DHT22;27562;47.524;12.404;2023-04-09T06:00:43;2.60;99.90
41882;DHT22;27562;47.524;12.404;2023-04-09T06:03:09;2.60;99.90
41882;DHT22;27562;47.524;12.404;2023-04-09T06:05:37;2.60;99.90
41882;DHT22;27562;47.524;12.404;2023-04-09T06:08:04;2.70;99.90
41882;DHT22;27562;47.524;12.404;2023-04-09T06:10:33;2.70;99.90
41882;DHT22;27562;47.524;12.404;2023-04-09T06:12:59;2.80;99.90
41882;DHT22;27562;47.524;12.404;2023-04-09T06:15:27;2.80;99.90
41882;DHT22;27562;47.524;12.404;2023-04-09T06:17:52;2.90;99.90
41882;DHT22;27562;47.524;12.404;2023-04-09T06:20:18;2.90;99.90
41882;DHT22;27562;47.524;12.404;2023-04-09T06:22:44;3.00;99.90
41882;DHT22;27562;47.524;12.404;2023-04-09T06:25:10;3.00;99.90
41882;DHT22;27562;47.524;12.404;2023-04-09T06:27:36;3.10;99.90
41882;DHT22;27562;47.524;12.404;2023-04-09T06:30:01;3.10;99.90
41882;DHT22;27562;47.524;12.404;2023-04-09T06:32:27;3.10;99.90
41882;DHT22;27562;47.524;12.404;2023-04-09T06:34:53;3.20;99.90
41882;DHT22;27562;47.524;12.404;2023-04-09T06:37:19;3.20;99.90
41882;DHT22;27562;47.524;12.404;2023-04-09T06:39:44;3.20;99.90
41882;DHT22;27562;47.524;12.404;2023-04-09T06:42:10;3.30;99.90
41882;DHT22;27562;47.524;12.404;2023-04-09T06:44:36;3.30;99.90
41882;DHT22;27562;47.524;12.404;2023-04-09T06:47:02;3.30;99.90
41882;DHT22;27562;47.524;12.404;2023-04-09T06:49:27;3.40;99.90
41882;DHT22;27562;47.524;12.404;2023-04-09T06:51:53;3.40;99.90
41882;DHT22;27562;47.524;12.404;2023-04-09T06:54:19;3.40;99.90
41882;DHT22;27562;47.524;12.404;2023-04-09T06:56:45;3.50;99.90
41882;DHT22;27562;47.524;12.404;2023-04-09T06:59:11;3.50;99.90
41882;DHT22;27562;47.524;12.404;2023-04-09T07:01:37;3.60;99.90
41882;DHT22;27562;47.524;12.404;2023-04-09T07:04:03;3.50;99.90
41882;DHT22;27562;47.524;12.404;2023-04-09T07:06:30;3.60;99.90
41882;DHT22;27562;47.524;12.404;2023-04-09T07:08:56;3.70;99.90
41882;DHT22;27562;47.524;12.404;2023-04-09T07:11:21;3.70;99.90
41882;DHT22;27562;47.524;12.404;2023-04-09T07:13:47;3.70;99.90
41882;DHT22;27562;47.524;12.404;2023-04-09T07:16:13;3.70;99.90
41882;DHT22;27562;47.524;12.404;2023-04-09T07:18:39;3.80;99.90
41882;DHT22;27562;47.524;12.404;2023-04-09T07:21:04;3.80;99.90
41882;DHT22;27562;47.524;12.404;2023-04-09T07:23:33;3.80;99.90
41882;DHT22;27562;47.524;12.404;2023-04-09T07:26:02;3.80;99.90
41882;DHT22;27562;47.524;12.404;2023-04-09T07:28:28;3.90;99.90
41882;DHT22;27562;47.524;12.404;2023-04-09T07:30:54;4.00;99.90
41882;DHT22;27562;47.524;12.404;2023-04-09T07:33:19;4.10;99.90
41882;DHT22;27562;47.524;12.404;2023-04-09T07:35:45;4.20;99.90
41882;DHT22;27562;47.524;12.404;2023-04-09T07:38:11;4.30;99.90
41882;DHT22;27562;47.524;12.404;2023-04-09T07:40:37;4.30;99.90
41882;DHT22;27562;47.524;12.404;2023-04-09T07:43:03;4.40;99.90
41882;DHT22;27562;47.524;12.404;2023-04-09T07:45:30;4.50;99.90
41882;DHT22;27562;47.524;12.404;2023-04-09T07:47:56;4.50;99.90
41882;DHT22;27562;47.524;12.404;2023-04-09T07:50:22;4.60;99.90
41882;DHT22;27562;47.524;12.404;2023-04-09T07:52:47;4.70;99.90
41882;DHT22;27562;47.524;12.404;2023-04-09T07:55:13;4.70;99.90
41882;DHT22;27562;47.524;12.404;2023-04-09T07:57:39;4.80;99.90
41882;DHT22;27562;47.524;12.404;2023-04-09T08:00:05;4.90;99.90
41882;DHT22;27562;47.524;12.404;2023-04-09T08:02:31;4.90;99.90
41882;DHT22;27562;47.524;12.404;2023-04-09T08:04:57;5.00;99.90
41882;DHT22;27562;47.524;12.404;2023-04-09T08:07:23;5.10;99.90
41882;DHT22;27562;47.524;12.404;2023-04-09T08:09:49;5.10;99.90
41882;DHT22;27562;47.524;12.404;2023-04-09T08:12:15;5.20;99.90
41882;DHT22;27562;47.524;12.404;2023-04-09T08:14:40;5.30;99.90
41882;DHT22;27562;47.524;12.404;2023-04-09T08:17:06;5.30;99.90
41882;DHT22;27562;47.524;12.404;2023-04-09T08:19:32;5.40;99.90
41882;DHT22;27562;47.524;12.404;2023-04-09T08:21:57;5.40;99.90
41882;DHT22;27562;47.524;12.404;2023-04-09T08:24:23;5.40;99.90
41882;DHT22;27562;47.524;12.404;2023-04-09T08:26:49;5.40;99.90
41882;DHT22;27562;47.524;12.404;2023-04-09T08:29:14;5.50;99.90
41882;DHT22;27562;47.524;12.404;2023-04-09T08:31:40;5.50;99.90
41882;DHT22;27562;47.524;12.404;2023-04-09T08:34:06;5.60;99.90
41882;DHT22;27562;47.524;12.404;2023-04-09T08:36:32;5.60;99.90
41882;DHT22;27562;47.524;12.404;2023-04-09T08:38:59;5.60;99.90
41882;DHT22;27562;47.524;12.404;2023-04-09T08:41:27;5.70;99.90
41882;DHT22;27562;47.524;12.404;2023-04-09T08:43:56;5.90;99.90
41882;DHT22;27562;47.524;12.404;2023-04-09T08:46:23;6.10;99.90
41882;DHT22;27562;47.524;12.404;2023-04-09T08:48:50;6.30;99.90
41882;DHT22;27562;47.524;12.404;2023-04-09T08:51:20;6.50;99.90
41882;DHT22;27562;47.524;12.404;2023-04-09T08:53:57;6.70;99.90
41882;DHT22;27562;47.524;12.404;2023-04-09T08:56:23;6.80;99.90
41882;DHT22;27562;47.524;12.404;2023-04-09T08:58:49;7.10;99.90
41882;DHT22;27562;47.524;12.404;2023-04-09T09:06:36;7.40;99.90
41882;DHT22;27562;47.524;12.404;2023-04-09T09:09:09;7.60;99.90
41882;DHT22;27562;47.524;12.404;2023-04-09T09:11:46;7.60;99.90
41882;DHT22;27562;47.524;12.404;2023-04-09T09:14:17;7.80;99.90
41882;DHT22;27562;47.524;12.404;2023-04-09T09:17:02;8.00;99.90
41882;DHT22;27562;47.524;12.404;2023-04-09T09:19:30;8.10;99.90
41882;DHT22;27562;47.524;12.404;2023-04-09T09:22:02;8.20;99.90
41882;DHT22;27562;47.524;12.404;2023-04-09T09:24:29;8.20;99.90
41882;DHT22;27562;47.524;12.404;2023-04-09T09:26:56;8.20;99.90
41882;DHT22;27562;47.524;12.404;2023-04-09T09:29:23;8.00;99.90
41882;DHT22;27562;47.524;12.404;2023-04-09T09:31:54;7.90;99.90
41882;DHT22;27562;47.524;12.404;2023-04-09T09:34:21;7.80;99.90
41882;DHT22;27562;47.524;12.404;2023-04-09T09:36:47;7.70;99.90
41882;DHT22;27562;47.524;12.404;2023-04-09T09:39:14;7.70;99.90
41882;DHT22;27562;47.524;12.404;2023-04-09T09:41:42;7.70;99.90
41882;DHT22;27562;47.524;12.404;2023-04-09T09:44:11;7.70;99.90
41882;DHT22;27562;47.524;12.404;2023-04-09T09:46:38;7.70;99.90
41882;DHT22;27562;47.524;12.404;2023-04-09T09:49:05;7.70;99.90
41882;DHT22;27562;47.524;12.404;2023-04-09T09:51:32;7.80;99.90
41882;DHT22;27562;47.524;12.404;2023-04-09T09:53:59;7.80;99.90
41882;DHT22;27562;47.524;12.404;2023-04-09T09:56:37;7.80;99.90
41882;DHT22;27562;47.524;12.404;2023-04-09T09:59:18;7.90;99.90
41882;DHT22;27562;47.524;12.404;2023-04-09T10:01:46;7.90;99.90
41882;DHT22;27562;47.524;12.404;2023-04-09T10:04:14;8.00;99.90
41882;DHT22;27562;47.524;12.404;2023-04-09T10:06:44;8.20;99.90
41882;DHT22;27562;47.524;12.404;2023-04-09T10:09:10;8.30;99.90
41882;DHT22;27562;47.524;12.404;2023-04-09T10:11:37;8.40;99.90
41882;DHT22;27562;47.524;12.404;2023-04-09T10:14:07;8.40;99.90
41882;DHT22;27562;47.524;12.404;2023-04-09T10:16:33;8.40;99.90
41882;DHT22;27562;47.524;12.404;2023-04-09T10:19:00;8.50;99.90
41882;DHT22;27562;47.524;12.404;2023-04-09T10:21:52;8.60;99.90
41882;DHT22;27562;47.524;12.404;2023-04-09T10:24:21;8.60;99.90
41882;DHT22;27562;47.524;12.404;2023-04-09T10:26:47;8.50;99.90
41882;DHT22;27562;47.524;12.404;2023-04-09T10:29:14;8.40;99.90
41882;DHT22;27562;47.524;12.404;2023-04-09T10:32:08;8.40;99.90
41882;DHT22;27562;47.524;12.404;2023-04-09T10:34:40;8.40;99.90
41882;DHT22;27562;47.524;12.404;2023-04-09T10:37:08;8.40;99.90
41882;DHT22;27562;47.524;12.404;2023-04-09T10:39:39;8.30;99.90
41882;DHT22;27562;47.524;12.404;2023-04-09T10:42:12;8.30;99.90
41882;DHT22;27562;47.524;12.404;2023-04-09T10:44:38;8.40;99.90
41882;DHT22;27562;47.524;12.404;2023-04-09T10:47:07;8.40;99.90
41882;DHT22;27562;47.524;12.404;2023-04-09T10:49:38;8.50;99.90
41882;DHT22;27562;47.524;12.404;2023-04-09T10:52:06;8.70;99.90
41882;DHT22;27562;47.524;12.404;2023-04-09T10:59:34;8.70;99.90
41882;DHT22;27562;47.524;12.404;2023-04-09T11:02:01;8.60;99.90
41882;DHT22;27562;47.524;12.404;2023-04-09T11:04:38;8.50;99.90
41882;DHT22;27562;47.524;12.404;2023-04-09T11:07:06;8.50;99.90
41882;DHT22;27562;47.524;12.404;2023-04-09T11:09:36;8.60;99.90
41882;DHT22;27562;47.524;12.404;2023-04-09T11:12:01;8.80;99.90
41882;DHT22;27562;47.524;12.404;2023-04-09T11:14:28;9.00;99.90
41882;DHT22;27562;47.524;12.404;2023-04-09T11:16:54;9.10;99.90
41882;DHT22;27562;47.524;12.404;2023-04-09T11:19:20;9.10;99.90
41882;DHT22;27562;47.524;12.404;2023-04-09T11:21:46;8.90;99.90
41882;DHT22;27562;47.524;12.404;2023-04-09T11:24:13;8.80;99.90
41882;DHT22;27562;47.524;12.404;2023-04-09T11:26:39;8.70;99.90
41882;DHT22;27562;47.524;12.404;2023-04-09T11:29:08;8.60;99.90
41882;DHT22;27562;47.524;12.404;2023-04-09T11:31:34;8.70;99.90
41882;DHT22;27562;47.524;12.404;2023-04-09T11:34:00;8.70;99.90
41882;DHT22;27562;47.524;12.404;2023-04-09T11:36:26;8.80;97.50
41882;DHT22;27562;47.524;12.404;2023-04-09T11:38:53;8.80;99.00
41882;DHT22;27562;47.524;12.404;2023-04-09T11:41:36;8.70;99.70
41882;DHT22;27562;47.524;12.404;2023-04-09T11:44:06;8.80;99.90
41882;DHT22;27562;47.524;12.404;2023-04-09T11:46:36;8.80;99.90
41882;DHT22;27562;47.524;12.404;2023-04-09T11:49:02;8.90;99.90
41882;DHT22;27562;47.524;12.404;2023-04-09T11:51:29;8.90;99.30
41882;DHT22;27562;47.524;12.404;2023-04-09T11:54:01;9.00;98.50
41882;DHT22;27562;47.524;12.404;2023-04-09T11:56:31;8.90;98.40
41882;DHT22;27562;47.524;12.404;2023-04-09T11:58:58;8.90;98.30
41882;DHT22;27562;47.524;12.404;2023-04-09T12:01:23;8.90;99.50
41882;DHT22;27562;47.524;12.404;2023-04-09T12:03:53;8.90;99.90
41882;DHT22;27562;47.524;12.404;2023-04-09T12:06:20;8.90;99.60
41882;DHT22;27562;47.524;12.404;2023-04-09T12:08:56;8.90;99.80
41882;DHT22;27562;47.524;12.404;2023-04-09T12:11:30;8.90;99.70
41882;DHT22;27562;47.524;12.404;2023-04-09T12:14:03;9.00;99.80
41882;DHT22;27562;47.524;12.404;2023-04-09T12:16:31;9.00;99.90
41882;DHT22;27562;47.524;12.404;2023-04-09T12:19:06;8.90;99.90
41882;DHT22;27562;47.524;12.404;2023-04-09T12:21:49;9.00;99.90
41882;DHT22;27562;47.524;12.404;2023-04-09T12:24:18;9.00;99.90
41882;DHT22;27562;47.524;12.404;2023-04-09T12:26:45;9.00;99.90
41882;DHT22;27562;47.524;12.404;2023-04-09T12:29:12;8.90;99.90
41882;DHT22;27562;47.524;12.404;2023-04-09T12:31:38;8.90;99.70
41882;DHT22;27562;47.524;12.404;2023-04-09T12:34:04;8.80;98.30
41882;DHT22;27562;47.524;12.404;2023-04-09T12:36:30;8.70;99.50
41882;DHT22;27562;47.524;12.404;2023-04-09T12:38:55;8.70;99.90
41882;DHT22;27562;47.524;12.404;2023-04-09T12:41:21;8.70;99.80
41882;DHT22;27562;47.524;12.404;2023-04-09T12:43:47;8.70;99.90
41882;DHT22;27562;47.524;12.404;2023-04-09T12:46:13;8.80;99.50
41882;DHT22;27562;47.524;12.404;2023-04-09T12:48:40;8.70;99.90
41882;DHT22;27562;47.524;12.404;2023-04-09T12:51:05;8.70;99.90
41882;DHT22;27562;47.524;12.404;2023-04-09T12:53:32;8.60;99.90
41882;DHT22;27562;47.524;12.404;2023-04-09T12:55:58;8.50;99.90
41882;DHT22;27562;47.524;12.404;2023-04-09T12:58:23;8.50;99.90
41882;DHT22;27562;47.524;12.404;2023-04-09T13:00:49;8.50;99.90
41882;DHT22;27562;47.524;12.404;2023-04-09T13:03:15;8.60;99.90
41882;DHT22;27562;47.524;12.404;2023-04-09T13:05:41;8.60;99.90
41882;DHT22;27562;47.524;12.404;2023-04-09T13:08:07;8.60;99.90
41882;DHT22;27562;47.524;12.404;2023-04-09T13:10:34;8.50;99.90
41882;DHT22;27562;47.524;12.404;2023-04-09T13:13:00;8.50;99.90
41882;DHT22;27562;47.524;12.404;2023-04-09T13:15:25;8.40;99.90
41882;DHT22;27562;47.524;12.404;2023-04-09T13:17:51;8.40;99.90
41882;DHT22;27562;47.524;12.404;2023-04-09T13:20:17;8.50;99.90
41882;DHT22;27562;47.524;12.404;2023-04-09T13:22:43;8.60;99.90
41882;DHT22;27562;47.524;12.404;2023-04-09T13:25:13;8.60;99.90
41882;DHT22;27562;47.524;12.404;2023-04-09T13:27:40;8.60;99.90
41882;DHT22;27562;47.524;12.404;2023-04-09T13:30:06;8.60;99.90
41882;DHT22;27562;47.524;12.404;2023-04-09T13:32:32;8.50;99.90
41882;DHT22;27562;47.524;12.404;2023-04-09T13:34:58;8.40;99.90
41882;DHT22;27562;47.524;12.404;2023-04-09T13:37:24;8.40;99.90
41882;DHT22;27562;47.524;12.404;2023-04-09T13:39:50;8.50;99.90
41882;DHT22;27562;47.524;12.404;2023-04-09T13:42:16;8.60;99.90
41882;DHT22;27562;47.524;12.404;2023-04-09T13:44:42;8.70;99.90
41882;DHT22;27562;47.524;12.404;2023-04-09T13:47:12;8.80;99.90
41882;DHT22;27562;47.524;12.404;2023-04-09T13:49:38;8.90;99.90
41882;DHT22;27562;47.524;12.404;2023-04-09T13:52:05;9.00;99.90
41882;DHT22;27562;47.524;12.404;2023-04-09T13:54:31;9.00;99.90
41882;DHT22;27562;47.524;12.404;2023-04-09T13:56:58;9.00;99.90
41882;DHT22;27562;47.524;12.404;2023-04-09T13:59:23;9.10;99.90
41882;DHT22;27562;47.524;12.404;2023-04-09T14:01:49;9.20;99.90
41882;DHT22;27562;47.524;12.404;2023-04-09T14:04:15;9.30;99.90
41882;DHT22;27562;47.524;12.404;2023-04-09T14:06:41;9.40;99.90
41882;DHT22;27562;47.524;12.404;2023-04-09T14:09:08;9.40;99.90
41882;DHT22;27562;47.524;12.404;2023-04-09T14:11:35;9.30;99.90
41882;DHT22;27562;47.524;12.404;2023-04-09T14:14:01;9.10;99.90
41882;DHT22;27562;47.524;12.404;2023-04-09T14:16:27;9.00;99.90
41882;DHT22;27562;47.524;12.404;2023-04-09T14:18:55;8.90;99.90
41882;DHT22;27562;47.524;12.404;2023-04-09T14:21:20;8.90;99.90
41882;DHT22;27562;47.524;12.404;2023-04-09T14:23:46;8.80;99.90
41882;DHT22;27562;47.524;12.404;2023-04-09T14:26:12;8.70;99.90
41882;DHT22;27562;47.524;12.404;2023-04-09T14:28:38;8.60;99.90
41882;DHT22;27562;47.524;12.404;2023-04-09T14:31:04;8.50;99.90
41882;DHT22;27562;47.524;12.404;2023-04-09T14:33:30;8.50;99.90
41882;DHT22;27562;47.524;12.404;2023-04-09T14:35:55;8.50;99.90
41882;DHT22;27562;47.524;12.404;2023-04-09T14:38:23;8.40;99.90
41882;DHT22;27562;47.524;12.404;2023-04-09T14:40:49;8.20;99.90
41882;DHT22;27562;47.524;12.404;2023-04-09T14:43:15;8.20;99.90
41882;DHT22;27562;47.524;12.404;2023-04-09T14:45:41;8.20;99.90
41882;DHT22;27562;47.524;12.404;2023-04-09T14:48:07;8.30;99.90
41882;DHT22;27562;47.524;12.404;2023-04-09T14:50:33;8.30;99.90
41882;DHT22;27562;47.524;12.404;2023-04-09T14:52:59;8.40;99.90
41882;DHT22;27562;47.524;12.404;2023-04-09T14:55:25;8.50;99.90
41882;DHT22;27562;47.524;12.404;2023-04-09T14:57:51;8.60;99.90
41882;DHT22;27562;47.524;12.404;2023-04-09T15:00:17;8.70;99.90
41882;DHT22;27562;47.524;12.404;2023-04-09T15:02:43;8.80;99.90
41882;DHT22;27562;47.524;12.404;2023-04-09T15:05:09;9.00;99.90
41882;DHT22;27562;47.524;12.404;2023-04-09T15:07:35;9.00;99.90
41882;DHT22;27562;47.524;12.404;2023-04-09T15:10:01;9.10;99.90
41882;DHT22;27562;47.524;12.404;2023-04-09T15:12:29;9.00;99.90
41882;DHT22;27562;47.524;12.404;2023-04-09T15:14:55;8.90;99.90
41882;DHT22;27562;47.524;12.404;2023-04-09T15:17:24;8.80;99.90
41882;DHT22;27562;47.524;12.404;2023-04-09T15:19:51;8.80;99.90
41882;DHT22;27562;47.524;12.404;2023-04-09T15:22:17;8.70;99.90
41882;DHT22;27562;47.524;12.404;2023-04-09T15:24:43;8.60;99.90
41882;DHT22;27562;47.524;12.404;2023-04-09T15:27:09;8.50;99.90
41882;DHT22;27562;47.524;12.404;2023-04-09T15:29:34;8.40;99.90
41882;DHT22;27562;47.524;12.404;2023-04-09T15:32:00;8.30;99.90
41882;DHT22;27562;47.524;12.404;2023-04-09T15:34:26;8.10;99.90
41882;DHT22;27562;47.524;12.404;2023-04-09T15:36:52;8.00;99.90
41882;DHT22;27562;47.524;12.404;2023-04-09T15:39:18;8.00;99.90
41882;DHT22;27562;47.524;12.404;2023-04-09T15:41:44;7.90;99.90
41882;DHT22;27562;47.524;12.404;2023-04-09T15:44:10;7.90;99.90
41882;DHT22;27562;47.524;12.404;2023-04-09T15:46:39;7.70;99.90
41882;DHT22;27562;47.524;12.404;2023-04-09T15:49:05;7.60;99.90
41882;DHT22;27562;47.524;12.404;2023-04-09T15:51:30;7.50;99.90